sensor_id;sensor_type;location;lat;lon;timestamp;pressure;altitude;pressure_sealevel;temperature;humidity
60427;BME280;46274;47.168;27.604;2023-02-17T00:01:42;100204.28;;;0.85;60.36
60427;BME280;46274;47.168;27.604;2023-02-17T00:07:44;100476.22;;;2.61;59.70
60427;BME280;46274;47.168;27.604;2023-02-17T00:13:50;100345.16;;;1.91;59.44
60427;BME280;46274;47.168;27.604;2023-02-17T00:19:59;100415.34;;;0.94;63.96
60427;BME280;46274;47.168;27.604;2023-02-17T00:26:04;100459.50;;;1.49;63.44
60427;BME280;46274;47.168;27.604;2023-02-17T00:32:10;100467.25;;;1.78;61.96
60427;BME280;46274;47.168;27.604;2023-02-17T00:38:13;100326.97;;;1.11;61.55
60427;BME280;46274;47.168;27.604;2023-02-17T00:44:16;100453.59;;;1.69;62.01
60427;BME280;46274;47.168;27.604;2023-02-17T00:50:21;100299.22;;;0.11;64.72
60427;BME280;46274;47.168;27.604;2023-02-17T00:56:32;100456.69;;;1.76;62.09
60427;BME280;46274;47.168;27.604;2023-02-17T01:02:39;100436.00;;;1.91;61.46
60427;BME280;46274;47.168;27.604;2023-02-17T01:08:49;100415.13;;;1.96;61.10
60427;BME280;46274;47.168;27.604;2023-02-17T01:14:51;100344.22;;;1.68;60.35
60427;BME280;46274;47.168;27.604;2023-02-17T01:20:54;100387.59;;;1.09;64.07
60427;BME280;46274;47.168;27.604;2023-02-17T01:26:59;100398.53;;;1.43;62.94
60427;BME280;46274;47.168;27.604;2023-02-17T01:33:02;100392.91;;;0.58;66.78
60427;BME280;46274;47.168;27.604;2023-02-17T01:39:12;100409.78;;;1.72;62.21
60427;BME280;46274;47.168;27.604;2023-02-17T01:51:32;100244.66;;;0.55;63.43
60427;BME280;46274;47.168;27.604;2023-02-17T01:57:37;100359.91;;;0.33;67.53
60427;BME280;46274;47.168;27.604;2023-02-17T02:03:44;100399.31;;;1.32;64.65
60427;BME280;46274;47.168;27.604;2023-02-17T02:09:53;100389.50;;;0.81;66.13
60427;BME280;46274;47.168;27.604;2023-02-17T02:35:01;100260.88;;;-0.26;68.93
60427;BME280;46274;47.168;27.604;2023-02-17T02:41:16;100248.13;;;-0.21;67.70
60427;BME280;46274;47.168;27.604;2023-02-17T02:47:52;100372.22;;;0.87;65.93
60427;BME280;46274;47.168;27.604;2023-02-17T02:54:18;100367.72;;;0.87;66.22
60427;BME280;46274;47.168;27.604;2023-02-17T03:07:14;100377.34;;;0.52;68.24
60427;BME280;46274;47.168;27.604;2023-02-17T03:13:33;100384.91;;;0.58;67.45
60427;BME280;46274;47.168;27.604;2023-02-17T03:19:42;100353.81;;;0.18;68.21
60427;BME280;46274;47.168;27.604;2023-02-17T03:25:46;100351.75;;;0.09;69.09
60427;BME280;46274;47.168;27.604;2023-02-17T03:31:49;100384.56;;;0.37;68.48
60427;BME280;46274;47.168;27.604;2023-02-17T03:37:51;100343.38;;;0.41;66.98
60427;BME280;46274;47.168;27.604;2023-02-17T03:43:54;100316.88;;;-0.01;68.41
60427;BME280;46274;47.168;27.604;2023-02-17T03:49:56;100378.16;;;0.39;67.89
60427;BME280;46274;47.168;27.604;2023-02-17T03:56:06;100382.34;;;0.69;67.21
60427;BME280;46274;47.168;27.604;2023-02-17T04:02:09;100391.41;;;0.79;66.43
60427;BME280;46274;47.168;27.604;2023-02-17T04:08:19;100350.00;;;0.99;65.32
60427;BME280;46274;47.168;27.604;2023-02-17T04:14:24;100378.34;;;1.39;65.22
60427;BME280;46274;47.168;27.604;2023-02-17T04:20:32;100339.84;;;1.54;64.39
60427;BME280;46274;47.168;27.604;2023-02-17T04:26:35;100287.22;;;1.19;63.96
60427;BME280;46274;47.168;27.604;2023-02-17T04:32:40;100378.41;;;1.87;63.70
60427;BME280;46274;47.168;27.604;2023-02-17T04:38:42;100374.25;;;1.83;63.82
60427;BME280;46274;47.168;27.604;2023-02-17T04:44:44;100367.59;;;1.64;63.79
60427;BME280;46274;47.168;27.604;2023-02-17T04:50:53;100338.16;;;1.53;63.55
60427;BME280;46274;47.168;27.604;2023-02-17T04:56:57;100223.44;;;1.03;62.77
60427;BME280;46274;47.168;27.604;2023-02-17T05:03:02;100351.53;;;1.77;62.74
60427;BME280;46274;47.168;27.604;2023-02-17T05:09:05;100408.88;;;2.08;62.51
60427;BME280;46274;47.168;27.604;2023-02-17T05:15:11;100405.53;;;2.17;62.18
60427;BME280;46274;47.168;27.604;2023-02-17T05:21:16;100391.03;;;1.85;63.02
60427;BME280;46274;47.168;27.604;2023-02-17T05:27:19;100314.56;;;1.10;63.63
60427;BME280;46274;47.168;27.604;2023-02-17T05:33:21;100395.78;;;1.19;65.29
60427;BME280;46274;47.168;27.604;2023-02-17T05:39:26;100414.25;;;1.35;64.50
60427;BME280;46274;47.168;27.604;2023-02-17T05:45:30;100387.03;;;0.53;67.05
60427;BME280;46274;47.168;27.604;2023-02-17T05:51:33;100362.50;;;1.12;64.51
60427;BME280;46274;47.168;27.604;2023-02-17T05:57:35;100421.28;;;1.36;65.32
60427;BME280;46274;47.168;27.604;2023-02-17T06:03:38;100418.06;;;1.43;64.57
60427;BME280;46274;47.168;27.604;2023-02-17T06:09:41;100418.38;;;1.88;63.70
60427;BME280;46274;47.168;27.604;2023-02-17T06:15:43;100354.84;;;1.44;64.39
60427;BME280;46274;47.168;27.604;2023-02-17T06:21:46;100418.91;;;2.17;64.30
60427;BME280;46274;47.168;27.604;2023-02-17T06:27:59;100416.38;;;2.51;62.59
60427;BME280;46274;47.168;27.604;2023-02-17T06:34:02;100431.19;;;3.02;62.72
60427;BME280;46274;47.168;27.604;2023-02-17T06:40:08;100430.88;;;3.40;61.07
60427;BME280;46274;47.168;27.604;2023-02-17T06:46:13;100307.72;;;2.84;61.26
60427;BME280;46274;47.168;27.604;2023-02-17T06:52:18;100295.91;;;2.98;60.73
60427;BME280;46274;47.168;27.604;2023-02-17T06:58:28;100425.53;;;4.18;59.92
60427;BME280;46274;47.168;27.604;2023-02-17T07:04:40;100436.53;;;4.47;60.11
60427;BME280;46274;47.168;27.604;2023-02-17T07:10:44;100434.84;;;4.88;59.67
60427;BME280;46274;47.168;27.604;2023-02-17T07:16:46;100435.06;;;4.96;58.26
60427;BME280;46274;47.168;27.604;2023-02-17T07:22:59;100421.59;;;5.38;57.66
60427;BME280;46274;47.168;27.604;2023-02-17T07:29:02;100389.63;;;5.44;56.34
60427;BME280;46274;47.168;27.604;2023-02-17T07:35:07;100410.78;;;5.99;55.82
60427;BME280;46274;47.168;27.604;2023-02-17T07:41:22;100415.63;;;6.25;55.60
60427;BME280;46274;47.168;27.604;2023-02-17T07:47:26;100374.28;;;6.26;55.23
60427;BME280;46274;47.168;27.604;2023-02-17T07:53:33;100409.38;;;6.73;54.69
60427;BME280;46274;47.168;27.604;2023-02-17T07:59:42;100222.78;;;5.96;54.24
60427;BME280;46274;47.168;27.604;2023-02-17T08:05:45;100283.34;;;6.39;53.27
60427;BME280;46274;47.168;27.604;2023-02-17T08:11:55;100412.06;;;7.39;53.12
60427;BME280;46274;47.168;27.604;2023-02-17T08:18:16;100423.97;;;7.47;53.16
60427;BME280;46274;47.168;27.604;2023-02-17T08:24:39;100423.16;;;7.64;52.15
60427;BME280;46274;47.168;27.604;2023-02-17T08:30:43;100415.53;;;7.87;53.69
60427;BME280;46274;47.168;27.604;2023-02-17T08:36:50;100413.91;;;8.22;53.46
60427;BME280;46274;47.168;27.604;2023-02-17T08:42:54;100426.13;;;8.44;53.00
60427;BME280;46274;47.168;27.604;2023-02-17T08:48:57;100390.06;;;8.17;52.21
60427;BME280;46274;47.168;27.604;2023-02-17T08:55:09;100325.56;;;7.78;52.47
60427;BME280;46274;47.168;27.604;2023-02-17T09:01:12;100311.34;;;7.86;53.32
60427;BME280;46274;47.168;27.604;2023-02-17T09:07:23;100409.03;;;8.25;53.39
60427;BME280;46274;47.168;27.604;2023-02-17T09:13:36;100378.94;;;8.20;52.51
60427;BME280;46274;47.168;27.604;2023-02-17T09:19:40;100298.47;;;7.98;52.55
60427;BME280;46274;47.168;27.604;2023-02-17T09:25:44;100380.06;;;8.63;51.88
60427;BME280;46274;47.168;27.604;2023-02-17T09:31:51;100412.75;;;8.96;51.49
60427;BME280;46274;47.168;27.604;2023-02-17T09:37:55;100409.41;;;9.02;52.02
60427;BME280;46274;47.168;27.604;2023-02-17T09:44:09;100299.41;;;8.68;51.65
60427;BME280;46274;47.168;27.604;2023-02-17T09:50:26;100402.59;;;9.50;50.99
60427;BME280;46274;47.168;27.604;2023-02-17T09:56:40;100265.75;;;8.89;50.55
60427;BME280;46274;47.168;27.604;2023-02-17T10:02:56;100400.09;;;9.99;50.82
60427;BME280;46274;47.168;27.604;2023-02-17T10:15:33;100384.97;;;10.39;48.56
60427;BME280;46274;47.168;27.604;2023-02-17T10:21:47;100217.50;;;9.61;47.80
60427;BME280;46274;47.168;27.604;2023-02-17T10:40:53;100365.84;;;11.54;45.97
60427;BME280;46274;47.168;27.604;2023-02-17T10:46:56;100356.00;;;11.53;45.83
60427;BME280;46274;47.168;27.604;2023-02-17T10:53:24;100252.91;;;11.13;45.07
60427;BME280;46274;47.168;27.604;2023-02-17T10:59:32;100335.81;;;11.08;44.50
60427;BME280;46274;47.168;27.604;2023-02-17T11:05:38;100280.56;;;11.01;43.61
60427;BME280;46274;47.168;27.604;2023-02-17T11:12:49;100187.91;;;10.41;44.25
60427;BME280;46274;47.168;27.604;2023-02-17T11:18:26;100179.81;;;10.33;44.75
60427;BME280;46274;47.168;27.604;2023-02-17T11:24:32;100323.06;;;11.64;45.44
60427;BME280;46274;47.168;27.604;2023-02-17T11:30:35;100313.31;;;12.09;44.53
60427;BME280;46274;47.168;27.604;2023-02-17T11:36:43;100274.81;;;12.06;44.16
60427;BME280;46274;47.168;27.604;2023-02-17T11:43:03;100207.28;;;11.71;42.67
60427;BME280;46274;47.168;27.604;2023-02-17T11:56:00;100286.91;;;12.18;43.29
60427;BME280;46274;47.168;27.604;2023-02-17T12:02:14;100283.19;;;12.19;42.95
60427;BME280;46274;47.168;27.604;2023-02-17T12:15:00;100248.97;;;12.10;43.26
60427;BME280;46274;47.168;27.604;2023-02-17T12:21:11;100263.56;;;12.47;42.70
60427;BME280;46274;47.168;27.604;2023-02-17T12:39:47;100256.03;;;13.16;41.63
60427;BME280;46274;47.168;27.604;2023-02-17T12:45:54;100240.56;;;13.17;41.86
60427;BME280;46274;47.168;27.604;2023-02-17T12:52:46;100123.69;;;12.57;40.95
60427;BME280;46274;47.168;27.604;2023-02-17T12:58:27;100208.28;;;13.14;40.34
60427;BME280;46274;47.168;27.604;2023-02-17T13:04:33;100124.31;;;12.89;40.48
60427;BME280;46274;47.168;27.604;2023-02-17T13:10:38;100164.00;;;13.20;39.90
60427;BME280;46274;47.168;27.604;2023-02-17T13:16:45;100056.47;;;12.51;40.06
60427;BME280;46274;47.168;27.604;2023-02-17T13:22:47;100196.50;;;13.79;41.00
60427;BME280;46274;47.168;27.604;2023-02-17T13:28:51;100117.53;;;13.36;39.81
60427;BME280;46274;47.168;27.604;2023-02-17T13:35:01;100197.03;;;13.89;39.62
60427;BME280;46274;47.168;27.604;2023-02-17T13:41:11;100171.22;;;13.64;39.51
60427;BME280;46274;47.168;27.604;2023-02-17T13:47:24;100136.97;;;13.33;40.27
60427;BME280;46274;47.168;27.604;2023-02-17T13:53:36;100194.63;;;13.80;39.07
60427;BME280;46274;47.168;27.604;2023-02-17T13:59:41;100194.47;;;13.88;40.49
60427;BME280;46274;47.168;27.604;2023-02-17T14:05:49;100038.94;;;12.90;40.08
60427;BME280;46274;47.168;27.604;2023-02-17T14:11:53;100180.66;;;13.68;40.95
60427;BME280;46274;47.168;27.604;2023-02-17T14:17:56;99923.84;;;11.89;41.42
60427;BME280;46274;47.168;27.604;2023-02-17T14:23:59;100170.34;;;13.42;41.74
60427;BME280;46274;47.168;27.604;2023-02-17T14:30:27;100160.63;;;13.54;42.67
60427;BME280;46274;47.168;27.604;2023-02-17T14:36:35;100178.06;;;13.38;43.01
60427;BME280;46274;47.168;27.604;2023-02-17T14:42:42;100177.88;;;13.25;43.16
60427;BME280;46274;47.168;27.604;2023-02-17T14:49:00;100054.25;;;12.10;43.21
60427;BME280;46274;47.168;27.604;2023-02-17T14:55:28;100166.88;;;12.52;43.11
60427;BME280;46274;47.168;27.604;2023-02-17T15:01:45;100116.34;;;11.75;44.49
60427;BME280;46274;47.168;27.604;2023-02-17T15:07:59;100161.97;;;12.03;44.17
60427;BME280;46274;47.168;27.604;2023-02-17T15:14:15;99987.38;;;10.58;45.15
60427;BME280;46274;47.168;27.604;2023-02-17T15:20:25;100159.00;;;11.44;45.82
60427;BME280;46274;47.168;27.604;2023-02-17T15:26:29;100155.84;;;11.32;46.23
60427;BME280;46274;47.168;27.604;2023-02-17T15:32:32;100044.09;;;10.03;47.28
60427;BME280;46274;47.168;27.604;2023-02-17T15:38:44;100134.94;;;10.78;47.40
60427;BME280;46274;47.168;27.604;2023-02-17T15:44:47;100092.47;;;10.23;47.55
60427;BME280;46274;47.168;27.604;2023-02-17T15:50:52;100151.69;;;10.34;47.96
60427;BME280;46274;47.168;27.604;2023-02-17T15:56:57;100125.31;;;10.12;48.26
60427;BME280;46274;47.168;27.604;2023-02-17T16:03:04;100163.41;;;8.25;52.39
60427;BME280;46274;47.168;27.604;2023-02-17T16:09:09;99999.41;;;8.19;49.96
60427;BME280;46274;47.168;27.604;2023-02-17T16:15:20;100167.88;;;9.11;49.59
60427;BME280;46274;47.168;27.604;2023-02-17T16:21:44;100167.13;;;8.24;51.86
60427;BME280;46274;47.168;27.604;2023-02-17T16:27:54;100118.81;;;8.13;51.33
60427;BME280;46274;47.168;27.604;2023-02-17T16:34:16;99894.72;;;6.32;52.87
60427;BME280;46274;47.168;27.604;2023-02-17T16:40:43;100158.16;;;7.98;52.73
60427;BME280;46274;47.168;27.604;2023-02-17T16:46:52;100013.19;;;7.04;53.03
60427;BME280;46274;47.168;27.604;2023-02-17T16:53:11;100125.16;;;7.60;53.51
60427;BME280;46274;47.168;27.604;2023-02-17T16:59:23;100108.22;;;7.50;53.85
60427;BME280;46274;47.168;27.604;2023-02-17T17:05:27;100109.00;;;7.42;54.12
60427;BME280;46274;47.168;27.604;2023-02-17T17:11:30;100124.03;;;7.45;54.48
60427;BME280;46274;47.168;27.604;2023-02-17T17:17:56;100100.53;;;7.37;53.94
60427;BME280;46274;47.168;27.604;2023-02-17T17:23:59;100034.09;;;7.10;53.52
60427;BME280;46274;47.168;27.604;2023-02-17T17:30:25;99921.56;;;6.24;54.35
60427;BME280;46274;47.168;27.604;2023-02-17T17:36:35;100047.19;;;7.05;53.92
60427;BME280;46274;47.168;27.604;2023-02-17T17:43:06;100079.50;;;7.05;54.63
60427;BME280;46274;47.168;27.604;2023-02-17T17:49:14;100062.69;;;7.03;54.13
60427;BME280;46274;47.168;27.604;2023-02-17T17:55:27;99890.66;;;6.10;53.94
60427;BME280;46274;47.168;27.604;2023-02-17T18:01:29;100038.81;;;6.90;54.07
60427;BME280;46274;47.168;27.604;2023-02-17T18:07:37;100036.31;;;6.78;54.74
60427;BME280;46274;47.168;27.604;2023-02-17T18:13:45;100053.59;;;7.04;54.20
60427;BME280;46274;47.168;27.604;2023-02-17T18:19:48;99980.34;;;6.64;53.99
60427;BME280;46274;47.168;27.604;2023-02-17T18:26:05;100038.88;;;7.16;54.02
60427;BME280;46274;47.168;27.604;2023-02-17T18:32:15;100029.09;;;7.15;53.69
60427;BME280;46274;47.168;27.604;2023-02-17T18:38:24;99973.16;;;6.73;54.11
60427;BME280;46274;47.168;27.604;2023-02-17T18:44:41;99857.16;;;6.22;53.64
60427;BME280;46274;47.168;27.604;2023-02-17T18:50:55;99978.41;;;6.92;54.28
60427;BME280;46274;47.168;27.604;2023-02-17T18:57:01;99972.19;;;6.92;54.45
60427;BME280;46274;47.168;27.604;2023-02-17T19:03:23;99893.13;;;6.39;54.85
60427;BME280;46274;47.168;27.604;2023-02-17T19:09:45;100010.16;;;7.25;55.18
60427;BME280;46274;47.168;27.604;2023-02-17T19:15:47;99894.97;;;6.57;55.20
60427;BME280;46274;47.168;27.604;2023-02-17T19:21:50;99801.44;;;6.15;55.00
60427;BME280;46274;47.168;27.604;2023-02-17T19:28:10;99868.53;;;6.78;54.88
60427;BME280;46274;47.168;27.604;2023-02-17T19:34:26;99972.41;;;7.51;55.06
60427;BME280;46274;47.168;27.604;2023-02-17T19:40:28;99962.75;;;7.40;55.91
60427;BME280;46274;47.168;27.604;2023-02-17T19:46:51;99951.50;;;7.45;55.95
60427;BME280;46274;47.168;27.604;2023-02-17T19:52:59;99902.56;;;7.31;55.52
60427;BME280;46274;47.168;27.604;2023-02-17T19:59:11;99937.50;;;7.75;55.16
60427;BME280;46274;47.168;27.604;2023-02-17T20:05:25;99908.00;;;7.74;55.45
60427;BME280;46274;47.168;27.604;2023-02-17T20:11:27;99901.75;;;7.73;55.55
60427;BME280;46274;47.168;27.604;2023-02-17T20:17:40;99883.38;;;7.69;55.46
60427;BME280;46274;47.168;27.604;2023-02-17T20:23:46;99857.88;;;7.55;55.94
60427;BME280;46274;47.168;27.604;2023-02-17T20:29:59;99891.34;;;7.78;56.07
60427;BME280;46274;47.168;27.604;2023-02-17T20:36:21;99887.94;;;7.76;56.13
60427;BME280;46274;47.168;27.604;2023-02-17T20:42:29;99751.72;;;7.05;56.47
60427;BME280;46274;47.168;27.604;2023-02-17T20:49:01;99805.44;;;7.41;57.15
60427;BME280;46274;47.168;27.604;2023-02-17T20:55:07;99536.75;;;5.99;56.91
60427;BME280;46274;47.168;27.604;2023-02-17T21:01:13;99810.22;;;7.72;57.23
60427;BME280;46274;47.168;27.604;2023-02-17T21:07:18;99689.22;;;6.93;58.09
60427;BME280;46274;47.168;27.604;2023-02-17T21:13:20;99789.31;;;7.57;58.20
60427;BME280;46274;47.168;27.604;2023-02-17T21:19:48;99764.19;;;7.49;57.44
60427;BME280;46274;47.168;27.604;2023-02-17T21:25:51;99810.78;;;7.83;57.46
60427;BME280;46274;47.168;27.604;2023-02-17T21:32:01;99804.41;;;8.01;56.44
60427;BME280;46274;47.168;27.604;2023-02-17T21:38:08;99800.53;;;8.20;56.19
60427;BME280;46274;47.168;27.604;2023-02-17T21:44:21;99765.13;;;8.06;55.91
60427;BME280;46274;47.168;27.604;2023-02-17T21:50:42;99771.69;;;8.20;55.79
60427;BME280;46274;47.168;27.604;2023-02-17T21:56:49;99777.75;;;8.39;55.34
60427;BME280;46274;47.168;27.604;2023-02-17T22:02:51;99760.72;;;8.30;55.60
60427;BME280;46274;47.168;27.604;2023-02-17T22:08:58;99706.59;;;7.99;56.23
60427;BME280;46274;47.168;27.604;2023-02-17T22:15:01;99734.91;;;7.86;58.09
60427;BME280;46274;47.168;27.604;2023-02-17T22:21:12;99714.19;;;8.03;57.13
60427;BME280;46274;47.168;27.604;2023-02-17T22:27:20;99677.25;;;8.04;56.31
60427;BME280;46274;47.168;27.604;2023-02-17T22:33:30;99670.53;;;7.92;57.37
60427;BME280;46274;47.168;27.604;2023-02-17T22:39:40;99563.66;;;7.09;58.80
60427;BME280;46274;47.168;27.604;2023-02-17T22:45:42;99502.06;;;6.89;58.21
60427;BME280;46274;47.168;27.604;2023-02-17T22:51:56;99630.06;;;7.51;59.45
60427;BME280;46274;47.168;27.604;2023-02-17T22:57:58;99542.81;;;7.03;59.14
60427;BME280;46274;47.168;27.604;2023-02-17T23:04:01;99673.06;;;7.85;59.92
60427;BME280;46274;47.168;27.604;2023-02-17T23:10:08;99679.13;;;7.79;60.56
60427;BME280;46274;47.168;27.604;2023-02-17T23:16:17;99681.97;;;8.10;58.96
60427;BME280;46274;47.168;27.604;2023-02-17T23:22:22;99689.75;;;8.13;58.84
60427;BME280;46274;47.168;27.604;2023-02-17T23:28:24;99674.75;;;7.70;60.34
60427;BME280;46274;47.168;27.604;2023-02-17T23:34:29;99699.16;;;7.76;61.29
60427;BME280;46274;47.168;27.604;2023-02-17T23:40:46;99712.66;;;7.68;63.42
60427;BME280;46274;47.168;27.604;2023-02-17T23:46:51;99509.38;;;6.46;63.86
60427;BME280;46274;47.168;27.604;2023-02-17T23:53:12;99673.16;;;7.26;66.98
60427;BME280;46274;47.168;27.604;2023-02-17T23:59:29;99692.34;;;7.23;68.21
